Accueil
METAR-TAF:

METAR-TAF

Aéroports :

Aérodrome de Granges

Granges, Suisse

latitude: 47-10-53N, longitude: 007-24-59E, altitude: 430 m

Observation

Le bulletin a été fait il y a 34 minutes, à 22:20 UTC
Vent 4 kt de nord-est
Température 2°C
Humidité 75%
Pression 1017 hPa
Visibilité 10 km ou plus
pas de nuages en-dessous de 1500 mètres et pas de cumulonimbus.

METAR: LSZG 082220Z AUTO 05004KT CAVOK 02/M02 Q1017

Heure: 23:54 (22:54 UTC)

Prévision

Le bulletin a été fait il y a 8 heures et 29 minutes, à 14:25 UTC
Prévision valable du 08 à 15 UTC au 08 à 24 UTC
Vent 6 kt de est/nord-est
Visibilité 10 km ou plus
Nuages épars à une hauteur de 4500 ft
Evoluant progressivement
du 08 à 15 UTC au 08 à 18 UTC
Visibilité 10 km ou plus
pas de nuages en-dessous de 1500 mètres et pas de cumulonimbus.

TAF: LSZG 081425Z 0815/0824 07006KT 9999 SCT045 BECMG 0815/0818 CAVOK

Observations et prévisions météorologiques de plus de 4000 aéroports (messages METAR et TAF).

Les stations disponibles sont représentées par des disques jaunes et rouges sur la carte.

Passer la souris dessus pour voir le nom de la station.

Cliquer dessus pour voir les observations et prévisions météorologiques.

Pour changer de carte: cliquez sur les boutons verts avec une croix noire pour zoomer, sur le bouton vert avec un tiret pour effectuer un zoom arrière, ou sur les flèches vertes pour les cartes adjacentes.


METAR-TAF: